Time;durP1;ratioP1;P1;durP2;ratioP2;P2;SDS_P1;SDS_P2;PMS_P1;PMS_P2;Temp;Humidity;BMP_temperature;BMP_pressure;BME280_temperature;BME280_humidity;BME280_pressure;Samples;Min_cycle;Max_cycle;Signal;HPM_P1;HPM_P2
2022/04/16 00:00:27;;;;;;;;;;;21.60;39.00;;;;;;488078;243;1287;-40
2022/04/16 00:02:27;;;;;;;;;;;21.60;39.00;;;;;;487658;244;2072;-40
2022/04/16 00:04:27;;;;;;;;;;;21.60;39.00;;;;;;488303;243;2479;-40
2022/04/16 00:06:29;;;;;;;;;;;21.60;38.90;;;;;;488304;243;1184;-39
2022/04/16 00:08:30;;;;;;;;;;;21.60;39.00;;;;;;488340;243;974;-40
2022/04/16 00:10:32;;;;;;;;;;;21.50;39.00;;;;;;488318;243;1052;-40
2022/04/16 00:12:33;;;;;;;;;;;21.60;39.00;;;;;;488345;243;1025;-39
2022/04/16 00:14:35;;;;;;;;;;;21.60;39.00;;;;;;487887;243;2386;-39
2022/04/16 00:16:35;;;;;;;;;;;21.60;39.00;;;;;;487867;244;1731;-40
2022/04/16 00:18:36;;;;;;;;;;;21.60;39.00;;;;;;488340;243;2112;-40
2022/04/16 00:20:40;;;;;;;;;;;21.60;39.00;;;;;;488351;243;1206;-39
2022/04/16 00:22:39;;;;;;;;;;;21.60;39.00;;;;;;488228;244;2029;-39
2022/04/16 00:24:41;;;;;;;;;;;21.60;39.00;;;;;;488378;243;1060;-39
2022/04/16 00:26:42;;;;;;;;;;;21.50;39.00;;;;;;487873;243;1072;-40
2022/04/16 00:28:43;;;;;;;;;;;21.60;39.10;;;;;;487874;243;1036;-40
2022/04/16 00:30:45;;;;;;;;;;;21.50;39.00;;;;;;488217;243;1342;-40
2022/04/16 00:32:46;;;;;;;;;;;21.50;39.00;;;;;;487987;243;1113;-40
2022/04/16 00:34:47;;;;;;;;;;;21.60;39.10;;;;;;487916;243;1056;-40
2022/04/16 00:36:49;;;;;;;;;;;21.50;39.10;;;;;;488329;243;1107;-40
2022/04/16 00:38:50;;;;;;;;;;;21.50;39.10;;;;;;488362;243;2194;-39
2022/04/16 00:40:52;;;;;;;;;;;21.50;39.10;;;;;;488340;243;1331;-40
2022/04/16 00:42:54;;;;;;;;;;;21.50;39.20;;;;;;488346;243;1218;-40
2022/04/16 00:44:55;;;;;;;;;;;21.60;39.10;;;;;;488342;243;1968;-39
2022/04/16 00:46:56;;;;;;;;;;;21.60;39.10;;;;;;487966;243;1149;-40
2022/04/16 00:48:57;;;;;;;;;;;21.60;39.10;;;;;;488348;243;977;-40
2022/04/16 00:50:59;;;;;;;;;;;21.50;39.00;;;;;;488322;243;1073;-40
2022/04/16 00:53:01;;;;;;;;;;;21.50;39.00;;;;;;487890;243;1049;-40
2022/04/16 00:55:02;;;;;;;;;;;21.60;39.00;;;;;;488384;243;1072;-40
2022/04/16 00:57:03;;;;;;;;;;;21.50;39.00;;;;;;488334;243;1069;-40
2022/04/16 00:59:05;;;;;;;;;;;21.50;39.20;;;;;;487906;243;2189;-40
2022/04/16 01:01:06;;;;;;;;;;;21.50;39.10;;;;;;488169;243;1195;-40
2022/04/16 01:03:07;;;;;;;;;;;21.50;39.20;;;;;;487891;243;935;-40
2022/04/16 01:05:10;;;;;;;;;;;21.50;39.10;;;;;;488364;243;1313;-40
2022/04/16 01:07:10;;;;;;;;;;;21.50;39.10;;;;;;488033;243;2352;-39
2022/04/16 01:09:11;;;;;;;;;;;21.50;39.20;;;;;;488406;243;1104;-40
2022/04/16 01:11:13;;;;;;;;;;;21.50;39.10;;;;;;488349;243;1105;-40
2022/04/16 01:13:14;;;;;;;;;;;21.50;39.10;;;;;;487898;243;1072;-39
2022/04/16 01:15:17;;;;;;;;;;;21.50;39.10;;;;;;488343;243;2129;-40
2022/04/16 01:17:17;;;;;;;;;;;21.50;39.10;;;;;;487842;243;2209;-39
2022/04/16 01:19:21;;;;;;;;;;;21.50;39.10;;;;;;488329;243;2277;-40
2022/04/16 01:21:19;;;;;;;;;;;21.50;39.10;;;;;;488075;243;1917;-40
2022/04/16 01:23:20;;;;;;;;;;;21.50;39.00;;;;;;488363;243;1815;-40
2022/04/16 01:25:24;;;;;;;;;;;21.50;39.10;;;;;;488307;243;1048;-40
2022/04/16 01:27:24;;;;;;;;;;;21.50;39.10;;;;;;488264;243;2347;-40
2022/04/16 01:29:25;;;;;;;;;;;21.60;39.10;;;;;;488379;243;1095;-40
2022/04/16 01:31:26;;;;;;;;;;;21.50;39.00;;;;;;488154;243;1307;-40
2022/04/16 01:33:27;;;;;;;;;;;21.50;39.00;;;;;;488347;243;1091;-40
2022/04/16 01:35:28;;;;;;;;;;;21.50;39.10;;;;;;488217;243;1042;-40
2022/04/16 01:37:34;;;;;;;;;;;21.50;39.10;;;;;;488305;243;1085;-40
2022/04/16 01:39:32;;;;;;;;;;;21.50;39.10;;;;;;488181;243;2230;-40
2022/04/16 01:41:34;;;;;;;;;;;21.50;39.10;;;;;;488301;243;1081;-40
2022/04/16 01:43:35;;;;;;;;;;;21.50;39.10;;;;;;487870;243;2052;-40
2022/04/16 01:45:36;;;;;;;;;;;21.50;39.00;;;;;;487910;243;1559;-40
2022/04/16 01:47:38;;;;;;;;;;;21.60;39.00;;;;;;487986;243;1195;-40
2022/04/16 01:49:38;;;;;;;;;;;21.60;39.00;;;;;;488248;243;2577;-40
2022/04/16 01:51:40;;;;;;;;;;;21.60;38.90;;;;;;488336;243;1110;-39
2022/04/16 01:53:41;;;;;;;;;;;21.50;39.00;;;;;;488382;243;959;-40
2022/04/16 01:55:42;;;;;;;;;;;21.60;39.00;;;;;;488361;243;1249;-40
2022/04/16 01:57:44;;;;;;;;;;;21.60;38.90;;;;;;488344;243;2123;-40
2022/04/16 01:59:45;;;;;;;;;;;21.60;39.00;;;;;;488067;243;1128;-40
2022/04/16 02:01:47;;;;;;;;;;;21.50;39.00;;;;;;487867;243;1180;-40
2022/04/16 02:03:48;;;;;;;;;;;21.50;38.90;;;;;;488369;243;2166;-39
2022/04/16 02:05:50;;;;;;;;;;;21.60;38.90;;;;;;488338;243;1214;-39
2022/04/16 02:07:51;;;;;;;;;;;21.60;38.90;;;;;;488347;243;1084;-40
2022/04/16 02:09:52;;;;;;;;;;;21.60;39.00;;;;;;487907;243;1220;-40
2022/04/16 02:11:53;;;;;;;;;;;21.50;39.00;;;;;;488259;243;1030;-39
2022/04/16 02:13:55;;;;;;;;;;;21.50;39.10;;;;;;487926;243;1060;-39
2022/04/16 02:15:56;;;;;;;;;;;21.50;39.10;;;;;;488773;243;1155;-39
2022/04/16 02:17:58;;;;;;;;;;;21.50;39.00;;;;;;490773;242;2129;-40
2022/04/16 02:19:59;;;;;;;;;;;21.50;39.10;;;;;;491191;242;1065;-40
2022/04/16 02:22:00;;;;;;;;;;;21.50;39.10;;;;;;491005;242;1422;-40
2022/04/16 02:24:02;;;;;;;;;;;21.50;39.00;;;;;;491187;242;1234;-40
2022/04/16 02:26:07;;;;;;;;;;;21.50;39.00;;;;;;491163;242;1038;-40
2022/04/16 02:28:04;;;;;;;;;;;21.50;39.00;;;;;;490962;242;2264;-39
2022/04/16 02:30:06;;;;;;;;;;;21.50;39.00;;;;;;491229;242;1050;-40
2022/04/16 02:32:07;;;;;;;;;;;21.50;39.10;;;;;;487295;242;1369;-40
2022/04/16 02:34:10;;;;;;;;;;;21.50;39.00;;;;;;483681;246;1029;-40
2022/04/16 02:36:11;;;;;;;;;;;21.50;39.10;;;;;;489692;243;2071;-40
2022/04/16 02:38:11;;;;;;;;;;;21.50;39.10;;;;;;491155;242;2359;-40
2022/04/16 02:40:13;;;;;;;;;;;21.50;39.10;;;;;;491201;242;1014;-40
2022/04/16 02:42:14;;;;;;;;;;;21.50;39.10;;;;;;491140;242;1054;-40
2022/04/16 02:48:56;;;;;;;;;;;21.50;39.00;;;;;;490731;242;1778;-40
2022/04/16 02:50:56;;;;;;;;;;;21.50;39.10;;;;;;491210;242;989;-40
2022/04/16 02:52:58;;;;;;;;;;;21.60;39.00;;;;;;490759;242;1040;-40
2022/04/16 02:54:59;;;;;;;;;;;21.50;39.00;;;;;;491243;242;1060;-40
2022/04/16 02:57:00;;;;;;;;;;;21.60;39.00;;;;;;490720;242;1037;-40
2022/04/16 02:59:02;;;;;;;;;;;21.60;39.00;;;;;;491221;242;2114;-40
2022/04/16 03:01:03;;;;;;;;;;;21.60;39.00;;;;;;490700;242;1049;-40
2022/04/16 03:03:04;;;;;;;;;;;21.60;39.00;;;;;;490698;242;1189;-39
2022/04/16 03:05:06;;;;;;;;;;;21.60;39.00;;;;;;491231;242;1041;-40
2022/04/16 03:07:07;;;;;;;;;;;21.60;39.00;;;;;;490762;242;1202;-39
2022/04/16 03:09:09;;;;;;;;;;;21.60;38.90;;;;;;491191;242;1057;-40
2022/04/16 03:11:10;;;;;;;;;;;21.60;38.90;;;;;;490717;242;1047;-40
2022/04/16 03:13:11;;;;;;;;;;;21.50;38.90;;;;;;491159;242;1003;-40
2022/04/16 03:17:32;;;;;;;;;;;21.60;39.00;;;;;;489377;243;1198;-40
2022/04/16 03:19:34;;;;;;;;;;;21.50;39.00;;;;;;487953;243;2201;-40
2022/04/16 03:21:35;;;;;;;;;;;21.60;38.90;;;;;;487834;244;1733;-40
2022/04/16 03:23:36;;;;;;;;;;;21.60;38.90;;;;;;488361;243;2243;-40
2022/04/16 03:25:37;;;;;;;;;;;21.60;38.90;;;;;;488392;243;1064;-40
2022/04/16 03:27:39;;;;;;;;;;;21.60;38.90;;;;;;488377;243;1201;-40
2022/04/16 03:29:40;;;;;;;;;;;21.60;38.90;;;;;;488366;243;1237;-40
2022/04/16 03:31:41;;;;;;;;;;;21.60;38.80;;;;;;488328;243;1508;-39
2022/04/16 03:33:42;;;;;;;;;;;21.60;38.80;;;;;;487887;243;1322;-40
2022/04/16 03:35:44;;;;;;;;;;;21.60;38.80;;;;;;488360;243;1069;-40
2022/04/16 03:37:45;;;;;;;;;;;21.70;38.80;;;;;;488321;243;1072;-40
2022/04/16 03:39:46;;;;;;;;;;;21.60;38.80;;;;;;487945;243;2178;-40
2022/04/16 03:41:48;;;;;;;;;;;21.60;38.80;;;;;;488309;243;959;-40
2022/04/16 03:43:49;;;;;;;;;;;21.60;38.80;;;;;;488387;243;1326;-40
2022/04/16 03:45:51;;;;;;;;;;;21.60;38.70;;;;;;488364;243;1038;-40
2022/04/16 03:47:52;;;;;;;;;;;21.60;38.70;;;;;;488214;243;1149;-39
2022/04/16 03:49:53;;;;;;;;;;;21.60;38.70;;;;;;488350;243;997;-40
2022/04/16 03:51:54;;;;;;;;;;;21.60;38.80;;;;;;488212;243;1264;-40
2022/04/16 03:59:59;;;;;;;;;;;21.60;38.80;;;;;;488359;243;1078;-40
2022/04/16 04:00:36;;;;;;;;;;;21.60;38.80;;;;;;488219;243;1253;-39
2022/04/16 04:02:38;;;;;;;;;;;21.60;38.80;;;;;;487879;243;1163;-40
2022/04/16 04:04:38;;;;;;;;;;;21.60;38.80;;;;;;487888;244;2085;-40
2022/04/16 04:06:40;;;;;;;;;;;21.60;38.90;;;;;;487856;243;1073;-40
2022/04/16 04:08:41;;;;;;;;;;;21.60;38.90;;;;;;488364;243;1094;-39
2022/04/16 04:10:43;;;;;;;;;;;21.60;38.80;;;;;;487932;243;1159;-40
2022/04/16 04:12:44;;;;;;;;;;;21.60;38.80;;;;;;488352;243;1340;-40
2022/04/16 04:14:45;;;;;;;;;;;21.60;38.80;;;;;;487995;243;1061;-40
2022/04/16 04:16:47;;;;;;;;;;;21.60;38.70;;;;;;488353;243;1050;-40
2022/04/16 04:18:48;;;;;;;;;;;21.60;38.80;;;;;;487980;243;2161;-40
2022/04/16 04:20:49;;;;;;;;;;;21.60;38.80;;;;;;488352;243;1053;-40
2022/04/16 04:22:50;;;;;;;;;;;21.60;38.80;;;;;;488349;243;1019;-39
2022/04/16 04:24:52;;;;;;;;;;;21.60;38.80;;;;;;487909;243;974;-40
2022/04/16 04:26:54;;;;;;;;;;;21.60;38.80;;;;;;488284;243;1125;-40
2022/04/16 04:28:55;;;;;;;;;;;21.60;38.80;;;;;;487977;243;1087;-40
2022/04/16 04:30:56;;;;;;;;;;;21.60;38.80;;;;;;487879;243;1226;-39
2022/04/16 04:32:58;;;;;;;;;;;21.60;38.80;;;;;;488274;243;1158;-40
2022/04/16 04:34:59;;;;;;;;;;;21.60;38.80;;;;;;488367;243;2205;-40
2022/04/16 04:37:00;;;;;;;;;;;21.60;38.80;;;;;;488334;243;1118;-40
2022/04/16 04:39:01;;;;;;;;;;;21.60;38.90;;;;;;487923;243;2189;-40
2022/04/16 04:41:04;;;;;;;;;;;21.50;39.00;;;;;;488342;243;1085;-40
2022/04/16 04:43:04;;;;;;;;;;;21.50;39.00;;;;;;488330;243;1523;-40
2022/04/16 04:45:05;;;;;;;;;;;21.50;38.90;;;;;;488383;243;1169;-40
2022/04/16 04:47:07;;;;;;;;;;;21.60;38.90;;;;;;488348;243;1049;-40
2022/04/16 04:49:08;;;;;;;;;;;21.50;38.90;;;;;;487931;243;1182;-40
2022/04/16 04:51:09;;;;;;;;;;;21.60;38.90;;;;;;488344;243;1080;-40
2022/04/16 04:53:11;;;;;;;;;;;21.60;38.80;;;;;;488364;243;1203;-40
2022/04/16 04:55:12;;;;;;;;;;;21.60;38.80;;;;;;488023;243;1054;-40
2022/04/16 04:57:13;;;;;;;;;;;21.60;38.80;;;;;;487956;243;1059;-40
2022/04/16 04:59:15;;;;;;;;;;;21.60;38.80;;;;;;488363;243;2186;-40
2022/04/16 05:01:17;;;;;;;;;;;21.60;38.80;;;;;;487891;243;1052;-40
2022/04/16 05:03:17;;;;;;;;;;;21.60;38.80;;;;;;487792;243;2303;-40
2022/04/16 05:05:19;;;;;;;;;;;21.60;38.80;;;;;;488384;243;1077;-40
2022/04/16 05:07:20;;;;;;;;;;;21.70;38.80;;;;;;488327;243;1075;-40
2022/04/16 05:09:21;;;;;;;;;;;21.60;38.80;;;;;;487928;243;1039;-40
2022/04/16 05:11:22;;;;;;;;;;;21.60;38.80;;;;;;488124;243;1102;-40
2022/04/16 05:13:24;;;;;;;;;;;21.60;38.90;;;;;;488371;243;1071;-40
2022/04/16 05:15:25;;;;;;;;;;;21.60;38.90;;;;;;488347;243;1079;-40
2022/04/16 05:17:26;;;;;;;;;;;21.60;38.90;;;;;;488284;243;1071;-40
2022/04/16 05:19:29;;;;;;;;;;;21.60;38.70;;;;;;490760;243;2184;-40
2022/04/16 05:21:29;;;;;;;;;;;21.60;38.80;;;;;;491074;243;2217;-40
2022/04/16 05:23:30;;;;;;;;;;;21.60;38.80;;;;;;491205;242;1043;-40
2022/04/16 05:25:32;;;;;;;;;;;21.70;38.80;;;;;;490924;242;1093;-40
2022/04/16 05:27:34;;;;;;;;;;;21.70;38.80;;;;;;490723;242;1083;-40
2022/04/16 05:29:48;;;;;;;;;;;21.70;38.80;;;;;;491162;242;2394;-39
2022/04/16 05:31:36;;;;;;;;;;;21.60;38.70;;;;;;489885;242;2148;-40
2022/04/16 05:35:56;;;;;;;;;;;21.60;38.70;;;;;;490682;242;1229;-40
2022/04/16 05:37:59;;;;;;;;;;;21.60;38.70;;;;;;491187;242;1041;-40
2022/04/16 05:39:59;;;;;;;;;;;21.60;38.70;;;;;;491121;242;2242;-40
2022/04/16 05:42:00;;;;;;;;;;;21.60;38.70;;;;;;491138;242;1057;-40
2022/04/16 05:44:01;;;;;;;;;;;21.60;38.80;;;;;;491175;242;1036;-40
2022/04/16 05:46:03;;;;;;;;;;;21.60;38.80;;;;;;490765;242;1065;-39
2022/04/16 05:48:04;;;;;;;;;;;21.60;38.80;;;;;;491194;242;1043;-40
2022/04/16 05:50:05;;;;;;;;;;;21.60;38.80;;;;;;490805;242;1136;-40
2022/04/16 05:52:07;;;;;;;;;;;21.70;38.80;;;;;;490694;242;1083;-40
2022/04/16 05:54:08;;;;;;;;;;;21.60;38.80;;;;;;491165;242;1061;-40
2022/04/16 05:56:09;;;;;;;;;;;21.60;38.80;;;;;;491112;242;1162;-40
2022/04/16 05:58:11;;;;;;;;;;;21.60;38.90;;;;;;490943;242;1177;-40
2022/04/16 06:00:13;;;;;;;;;;;21.50;38.90;;;;;;491199;242;2129;-40
2022/04/16 06:02:13;;;;;;;;;;;21.60;38.90;;;;;;491056;242;1557;-40
2022/04/16 06:04:15;;;;;;;;;;;21.60;38.90;;;;;;491059;242;1143;-39
2022/04/16 06:06:16;;;;;;;;;;;21.60;38.90;;;;;;490781;242;1137;-39
2022/04/16 06:08:17;;;;;;;;;;;21.50;38.90;;;;;;491148;242;1060;-39
2022/04/16 06:10:18;;;;;;;;;;;21.60;38.90;;;;;;491186;242;1091;-40
2022/04/16 06:12:20;;;;;;;;;;;21.60;38.80;;;;;;491141;242;1070;-40
2022/04/16 06:14:21;;;;;;;;;;;21.60;38.70;;;;;;491168;242;1283;-40
2022/04/16 06:16:23;;;;;;;;;;;21.60;38.80;;;;;;491120;242;1070;-40
2022/04/16 06:18:24;;;;;;;;;;;21.60;38.70;;;;;;491122;242;1245;-40
2022/04/16 06:20:25;;;;;;;;;;;21.60;38.90;;;;;;490841;242;2140;-40
2022/04/16 06:22:26;;;;;;;;;;;21.60;38.90;;;;;;491025;242;1143;-40
2022/04/16 06:24:28;;;;;;;;;;;21.60;38.90;;;;;;490731;242;1094;-39
2022/04/16 06:26:29;;;;;;;;;;;21.60;38.80;;;;;;491000;242;2028;-40
2022/04/16 06:28:30;;;;;;;;;;;21.60;38.80;;;;;;491123;242;1139;-40
2022/04/16 06:30:32;;;;;;;;;;;21.60;38.80;;;;;;490704;242;1070;-40
2022/04/16 06:32:33;;;;;;;;;;;21.60;38.80;;;;;;491095;242;1082;-40
2022/04/16 06:34:34;;;;;;;;;;;21.60;38.80;;;;;;488536;242;1302;-40
2022/04/16 06:36:37;;;;;;;;;;;21.60;38.90;;;;;;483087;246;1114;-40
2022/04/16 06:38:37;;;;;;;;;;;21.60;38.80;;;;;;484073;245;1512;-40
2022/04/16 06:40:38;;;;;;;;;;;21.60;38.80;;;;;;488632;243;2188;-40
2022/04/16 06:42:40;;;;;;;;;;;21.60;38.70;;;;;;491049;242;1069;-40
2022/04/16 06:44:41;;;;;;;;;;;21.60;38.90;;;;;;491158;242;1057;-40
2022/04/16 06:46:42;;;;;;;;;;;21.60;38.90;;;;;;490914;242;1057;-40
2022/04/16 06:48:44;;;;;;;;;;;21.60;38.80;;;;;;490716;242;1025;-40
2022/04/16 06:50:45;;;;;;;;;;;21.60;38.90;;;;;;490834;242;1328;-40
2022/04/16 06:52:46;;;;;;;;;;;21.60;38.80;;;;;;491150;242;1000;-39
2022/04/16 06:54:47;;;;;;;;;;;21.60;38.80;;;;;;490713;242;1240;-40
2022/04/16 06:56:49;;;;;;;;;;;21.60;38.80;;;;;;491142;242;1092;-39
2022/04/16 06:58:50;;;;;;;;;;;21.60;38.80;;;;;;491178;242;1091;-39
2022/04/16 07:00:51;;;;;;;;;;;21.60;38.80;;;;;;490920;242;2125;-40
2022/04/16 07:02:53;;;;;;;;;;;21.60;38.80;;;;;;491045;242;1003;-40
2022/04/16 07:04:54;;;;;;;;;;;21.60;38.80;;;;;;490711;242;1182;-40
2022/04/16 07:06:55;;;;;;;;;;;21.60;38.70;;;;;;490660;242;1073;-40
2022/04/16 07:08:57;;;;;;;;;;;21.60;38.80;;;;;;490722;242;1334;-40
2022/04/16 07:10:58;;;;;;;;;;;21.60;38.80;;;;;;491147;242;1056;-40
2022/04/16 07:12:59;;;;;;;;;;;21.60;38.70;;;;;;490734;242;1075;-40
2022/04/16 07:15:01;;;;;;;;;;;21.60;38.80;;;;;;491204;242;1032;-40
2022/04/16 07:17:02;;;;;;;;;;;21.60;38.80;;;;;;491125;242;1240;-40
2022/04/16 07:19:03;;;;;;;;;;;21.60;38.80;;;;;;491154;242;1057;-40
2022/04/16 07:21:04;;;;;;;;;;;21.60;38.80;;;;;;490853;242;2173;-39
2022/04/16 07:23:06;;;;;;;;;;;21.60;38.70;;;;;;491159;242;1059;-40
2022/04/16 07:25:07;;;;;;;;;;;21.60;38.70;;;;;;491226;242;995;-40
2022/04/16 07:27:09;;;;;;;;;;;21.60;38.70;;;;;;490946;242;1154;-40
2022/04/16 07:29:10;;;;;;;;;;;21.60;38.70;;;;;;491178;242;1051;-39
2022/04/16 07:31:11;;;;;;;;;;;21.60;38.80;;;;;;491135;242;1235;-40
2022/04/16 07:33:13;;;;;;;;;;;21.50;38.90;;;;;;490666;242;1083;-40
2022/04/16 07:35:14;;;;;;;;;;;21.60;38.90;;;;;;491124;242;1171;-39
2022/04/16 07:37:16;;;;;;;;;;;21.60;38.90;;;;;;490689;242;1058;-40
2022/04/16 07:39:17;;;;;;;;;;;21.60;38.90;;;;;;491064;242;1102;-40
2022/04/16 07:41:18;;;;;;;;;;;21.60;38.90;;;;;;491047;242;2114;-40
2022/04/16 07:43:20;;;;;;;;;;;21.60;38.90;;;;;;491170;242;1058;-40
2022/04/16 07:45:21;;;;;;;;;;;21.60;38.90;;;;;;491205;242;1307;-40
2022/04/16 07:47:23;;;;;;;;;;;21.60;38.90;;;;;;491154;242;1048;-40
2022/04/16 07:49:24;;;;;;;;;;;21.60;38.90;;;;;;491179;242;1127;-39
2022/04/16 07:51:25;;;;;;;;;;;21.50;38.90;;;;;;490699;242;1175;-40
2022/04/16 07:53:27;;;;;;;;;;;21.60;38.90;;;;;;490646;242;1226;-40
2022/04/16 07:55:31;;;;;;;;;;;21.60;38.90;;;;;;491146;242;1045;-40
2022/04/16 07:57:30;;;;;;;;;;;21.60;38.90;;;;;;490670;242;2332;-40
2022/04/16 07:59:31;;;;;;;;;;;21.60;38.90;;;;;;490597;242;1087;-40
2022/04/16 08:01:32;;;;;;;;;;;21.60;38.80;;;;;;490602;242;2169;-40
2022/04/16 08:03:34;;;;;;;;;;;21.60;38.80;;;;;;491012;242;1063;-40
2022/04/16 08:05:35;;;;;;;;;;;21.60;38.80;;;;;;490718;242;1271;-40
2022/04/16 08:07:36;;;;;;;;;;;21.60;38.80;;;;;;491125;242;1032;-40
2022/04/16 08:09:37;;;;;;;;;;;21.60;38.80;;;;;;490729;242;1073;-40
2022/04/16 08:11:39;;;;;;;;;;;21.60;38.80;;;;;;491133;242;1071;-40
2022/04/16 08:13:40;;;;;;;;;;;21.60;38.80;;;;;;491009;242;1330;-40
2022/04/16 08:15:41;;;;;;;;;;;21.60;38.80;;;;;;490605;242;1215;-40
2022/04/16 08:17:43;;;;;;;;;;;21.60;38.80;;;;;;490789;242;1064;-40
2022/04/16 08:19:44;;;;;;;;;;;21.60;38.90;;;;;;490600;242;1307;-39
2022/04/16 08:21:45;;;;;;;;;;;21.60;38.80;;;;;;490746;242;2204;-40
2022/04/16 08:23:56;;;;;;;;;;;21.60;38.80;;;;;;491091;242;1055;-40
2022/04/16 08:25:56;;;;;;;;;;;21.50;38.80;;;;;;490599;243;2365;-40
2022/04/16 08:27:58;;;;;;;;;;;21.60;38.80;;;;;;491139;242;1047;-40
2022/04/16 08:30:00;;;;;;;;;;;21.60;38.80;;;;;;491109;242;1115;-40
2022/04/16 08:32:02;;;;;;;;;;;21.60;38.80;;;;;;491065;242;1264;-40
2022/04/16 08:34:03;;;;;;;;;;;21.60;38.80;;;;;;490716;242;1084;-40
2022/04/16 08:36:04;;;;;;;;;;;21.60;38.90;;;;;;490685;242;1226;-40
2022/04/16 08:38:06;;;;;;;;;;;21.60;38.90;;;;;;490681;242;1208;-40
2022/04/16 08:40:07;;;;;;;;;;;21.60;38.80;;;;;;491044;242;2122;-40
2022/04/16 08:42:08;;;;;;;;;;;21.60;38.70;;;;;;490657;243;1064;-40
2022/04/16 08:44:10;;;;;;;;;;;21.60;38.80;;;;;;491179;242;1045;-40
2022/04/16 08:46:11;;;;;;;;;;;21.60;38.70;;;;;;491133;242;1031;-39
2022/04/16 08:48:14;;;;;;;;;;;21.60;38.80;;;;;;490993;242;1042;-40
2022/04/16 08:50:14;;;;;;;;;;;21.60;38.80;;;;;;490609;243;1814;-40
2022/04/16 08:52:15;;;;;;;;;;;21.60;38.80;;;;;;490793;242;1279;-39
2022/04/16 08:54:16;;;;;;;;;;;21.60;38.70;;;;;;491158;242;1074;-40
2022/04/16 08:56:18;;;;;;;;;;;21.60;38.70;;;;;;490583;242;1077;-40
2022/04/16 08:58:19;;;;;;;;;;;21.60;38.70;;;;;;490650;242;1046;-40
2022/04/16 09:00:20;;;;;;;;;;;21.60;38.80;;;;;;491038;242;2180;-39
2022/04/16 09:02:22;;;;;;;;;;;21.60;38.70;;;;;;490585;242;1082;-40
2022/04/16 09:04:23;;;;;;;;;;;21.60;38.70;;;;;;491122;242;1069;-39
2022/04/16 09:06:24;;;;;;;;;;;21.60;38.70;;;;;;491041;242;1187;-39
2022/04/16 09:08:26;;;;;;;;;;;21.60;38.70;;;;;;491180;242;1014;-40
2022/04/16 09:10:27;;;;;;;;;;;21.60;38.70;;;;;;491147;242;1019;-40
2022/04/16 09:12:28;;;;;;;;;;;21.60;38.70;;;;;;491093;242;1073;-40
2022/04/16 09:14:30;;;;;;;;;;;21.60;38.70;;;;;;491177;242;1328;-40
2022/04/16 09:16:31;;;;;;;;;;;21.60;38.80;;;;;;491054;242;1073;-40
2022/04/16 09:18:32;;;;;;;;;;;21.60;38.80;;;;;;490668;242;1042;-40
2022/04/16 09:20:33;;;;;;;;;;;21.60;38.80;;;;;;490635;242;2172;-40
2022/04/16 09:22:35;;;;;;;;;;;21.60;38.80;;;;;;490806;242;1198;-40
2022/04/16 09:24:36;;;;;;;;;;;21.60;38.80;;;;;;491101;242;1141;-39
2022/04/16 09:26:37;;;;;;;;;;;21.60;38.80;;;;;;490598;242;1063;-40
2022/04/16 09:28:39;;;;;;;;;;;21.60;38.90;;;;;;491125;242;1024;-40
2022/04/16 09:30:40;;;;;;;;;;;21.60;38.90;;;;;;491090;242;1026;-40
2022/04/16 09:32:41;;;;;;;;;;;21.60;38.90;;;;;;491080;242;998;-40
2022/04/16 09:34:43;;;;;;;;;;;21.60;38.90;;;;;;491165;242;1105;-40
2022/04/16 09:36:44;;;;;;;;;;;21.60;38.90;;;;;;491024;242;1119;-40
2022/04/16 09:38:45;;;;;;;;;;;21.60;39.00;;;;;;491143;242;1023;-40
2022/04/16 09:40:47;;;;;;;;;;;21.60;38.90;;;;;;491106;242;2109;-40
2022/04/16 09:42:48;;;;;;;;;;;21.60;38.90;;;;;;490577;242;1141;-40
2022/04/16 09:44:49;;;;;;;;;;;21.60;38.70;;;;;;491082;242;1020;-39
2022/04/16 09:46:51;;;;;;;;;;;21.60;38.80;;;;;;491038;242;1087;-40
2022/04/16 09:48:52;;;;;;;;;;;21.60;38.80;;;;;;490806;242;1234;-40
2022/04/16 09:50:53;;;;;;;;;;;21.50;38.90;;;;;;490877;242;1054;-40
2022/04/16 09:52:55;;;;;;;;;;;21.50;38.80;;;;;;490540;242;1326;-40
2022/04/16 09:54:56;;;;;;;;;;;21.60;38.80;;;;;;491087;242;997;-39
2022/04/16 09:56:57;;;;;;;;;;;21.60;38.80;;;;;;490777;242;1065;-39
2022/04/16 09:58:59;;;;;;;;;;;21.60;38.70;;;;;;490790;242;1106;-40
2022/04/16 10:01:00;;;;;;;;;;;21.60;38.80;;;;;;490606;242;2188;-40
2022/04/16 10:03:01;;;;;;;;;;;21.60;38.80;;;;;;490645;242;1045;-40
2022/04/16 10:05:02;;;;;;;;;;;21.60;38.70;;;;;;490978;242;1031;-40
2022/04/16 10:07:04;;;;;;;;;;;21.60;38.80;;;;;;490895;242;1335;-40
2022/04/16 10:09:14;;;;;;;;;;;21.60;38.80;;;;;;490764;242;1038;-40
2022/04/16 10:11:20;;;;;;;;;;;21.60;38.80;;;;;;491093;242;1129;-40
2022/04/16 10:13:19;;;;;;;;;;;21.60;38.70;;;;;;490882;243;2120;-40
2022/04/16 10:15:19;;;;;;;;;;;21.50;38.80;;;;;;491073;242;1963;-40
2022/04/16 10:17:21;;;;;;;;;;;21.60;38.80;;;;;;490620;242;1072;-40
2022/04/16 10:19:22;;;;;;;;;;;21.60;38.70;;;;;;491133;242;1019;-40
2022/04/16 10:21:23;;;;;;;;;;;21.60;38.70;;;;;;491114;242;2199;-40
2022/04/16 10:23:25;;;;;;;;;;;21.60;38.80;;;;;;490720;242;1176;-40
2022/04/16 10:25:26;;;;;;;;;;;21.70;38.80;;;;;;491121;242;1102;-40
2022/04/16 10:27:27;;;;;;;;;;;21.60;38.70;;;;;;491099;242;969;-40
2022/04/16 10:29:28;;;;;;;;;;;21.60;38.70;;;;;;491124;242;1005;-40
2022/04/16 10:31:30;;;;;;;;;;;21.60;38.70;;;;;;490640;242;1354;-40
2022/04/16 10:33:31;;;;;;;;;;;21.50;38.80;;;;;;491110;242;953;-40
2022/04/16 10:35:33;;;;;;;;;;;21.60;38.80;;;;;;491133;242;1059;-40
2022/04/16 10:37:34;;;;;;;;;;;21.60;38.70;;;;;;491006;242;1440;-40
2022/04/16 10:39:35;;;;;;;;;;;21.60;38.70;;;;;;490670;242;1262;-40
2022/04/16 10:41:37;;;;;;;;;;;21.60;38.70;;;;;;491060;242;2113;-40
2022/04/16 10:43:38;;;;;;;;;;;21.60;38.80;;;;;;490692;242;1082;-39
2022/04/16 10:45:39;;;;;;;;;;;21.60;38.70;;;;;;491114;242;987;-40
2022/04/16 10:47:41;;;;;;;;;;;21.50;38.80;;;;;;491062;242;1004;-40
2022/04/16 10:49:42;;;;;;;;;;;21.60;38.80;;;;;;490610;242;1045;-39
2022/04/16 10:51:44;;;;;;;;;;;21.60;38.80;;;;;;490632;242;1096;-40
2022/04/16 10:53:45;;;;;;;;;;;21.60;38.80;;;;;;490872;242;1332;-40
2022/04/16 10:55:46;;;;;;;;;;;21.60;38.80;;;;;;490662;242;1264;-40
2022/04/16 10:57:47;;;;;;;;;;;21.60;38.90;;;;;;490683;242;1029;-40
2022/04/16 10:59:49;;;;;;;;;;;21.60;38.90;;;;;;490688;242;1034;-40
2022/04/16 11:01:50;;;;;;;;;;;21.50;38.90;;;;;;491116;242;2117;-40
2022/04/16 11:03:53;;;;;;;;;;;21.60;38.90;;;;;;490689;242;1174;-39
2022/04/16 11:05:53;;;;;;;;;;;21.60;38.80;;;;;;490554;242;2278;-40
2022/04/16 11:07:54;;;;;;;;;;;21.60;38.80;;;;;;490786;242;1174;-40
2022/04/16 11:09:55;;;;;;;;;;;21.50;38.80;;;;;;491209;242;1038;-40
2022/04/16 11:11:57;;;;;;;;;;;21.50;38.90;;;;;;491070;242;1042;-40
2022/04/16 11:13:59;;;;;;;;;;;21.50;38.90;;;;;;490733;242;1048;-40
2022/04/16 11:15:59;;;;;;;;;;;21.50;38.90;;;;;;491118;243;2325;-40
2022/04/16 11:18:01;;;;;;;;;;;21.50;38.90;;;;;;491176;242;1058;-39
2022/04/16 11:20:02;;;;;;;;;;;21.60;38.90;;;;;;491194;242;1033;-40
2022/04/16 11:22:04;;;;;;;;;;;21.60;38.90;;;;;;490768;242;2167;-40
2022/04/16 11:24:05;;;;;;;;;;;21.50;39.00;;;;;;490743;242;1197;-39
2022/04/16 11:35:36;;;;;;;;;;;21.60;38.80;;;;;;490712;243;1063;-39
2022/04/16 11:37:38;;;;;;;;;;;21.60;38.90;;;;;;490736;242;1084;-40
2022/04/16 11:39:39;;;;;;;;;;;21.50;38.90;;;;;;490854;242;1159;-39
2022/04/16 11:41:40;;;;;;;;;;;21.50;38.90;;;;;;490687;242;2200;-40
2022/04/16 11:43:42;;;;;;;;;;;21.50;38.90;;;;;;491189;242;1567;-39
2022/04/16 11:45:46;;;;;;;;;;;21.50;38.90;;;;;;491180;242;1065;-39
2022/04/16 11:47:44;;;;;;;;;;;21.50;38.90;;;;;;490562;243;2091;-40
2022/04/16 11:49:46;;;;;;;;;;;21.50;38.90;;;;;;490969;242;1033;-40
2022/04/16 11:51:47;;;;;;;;;;;21.60;38.90;;;;;;490659;243;2371;-40
2022/04/16 11:53:48;;;;;;;;;;;21.50;38.90;;;;;;491067;242;1355;-40
2022/04/16 11:55:49;;;;;;;;;;;21.50;38.90;;;;;;491077;242;1062;-40
2022/04/16 11:57:52;;;;;;;;;;;21.50;39.00;;;;;;490723;242;1083;-40
2022/04/16 11:59:53;;;;;;;;;;;21.50;38.90;;;;;;490672;242;2205;-40
2022/04/16 12:01:54;;;;;;;;;;;21.60;39.00;;;;;;490916;242;2181;-40
2022/04/16 12:03:56;;;;;;;;;;;21.60;38.90;;;;;;491172;242;1052;-39
2022/04/16 12:05:58;;;;;;;;;;;21.60;38.80;;;;;;491173;242;1056;-40
2022/04/16 12:07:59;;;;;;;;;;;21.60;38.80;;;;;;490692;242;1029;-40
2022/04/16 12:10:00;;;;;;;;;;;21.50;38.90;;;;;;490740;242;1117;-40
2022/04/16 12:12:03;;;;;;;;;;;21.60;38.90;;;;;;490674;242;1047;-40
2022/04/16 12:14:03;;;;;;;;;;;21.60;38.80;;;;;;490661;242;1465;-40
2022/04/16 12:16:05;;;;;;;;;;;21.60;38.80;;;;;;491097;242;1112;-39
2022/04/16 12:18:06;;;;;;;;;;;21.50;38.90;;;;;;490709;242;1041;-40
2022/04/16 12:20:08;;;;;;;;;;;21.60;38.90;;;;;;491213;242;945;-40